Latest Weather Observations for Nuriootpa

IDS60901

Issued at 4:11 pm CDT Friday 9 December 2016 (issued every 10 minutes, with the page automatically refreshed every 10 minutes)

About weather observations | Map of Adelaide area stations | Latest observations for Adelaide area | Other Formats
Station Details ID: 023373 Name: NURIOOTPA PIRSA Lat: -34.48 Lon: 139.01 Height: 275.0 m
Data from the previous 72 hours. | See also: Recent months at Nuriootpa
Date/Time
CDT
Temp
°C
App
Temp
°C
Dew
Point
°C
Rel
Hum
%
Delta-T
°C
Wind Press
QNH
hPa
Press
MSL
hPa
Rain since
9am
mm
Dir  Spd
km/h
Gust
km/h
Spd
kts
Gust
kts
09/04:00pm 19.9 15.7 5.7 39 7.1 SSE 17 26 9 14 1020.8 1020.0 0.0
09/03:30pm 19.7 15.5 3.9 35 7.6 SSW 15 22 8 12 1021.0 1020.2 0.0
09/03:00pm 19.5 16.5 3.9 35 7.5 SSE 9 17 5 9 1021.0 1020.2 0.0
09/02:30pm 18.2 13.1 3.0 36 7.1 SE 19 28 10 15 1021.2 1020.4 0.0
09/02:00pm 18.4 14.6 3.9 38 6.9 S 13 20 7 11 1021.6 1020.8 0.0
09/01:30pm 17.5 14.1 4.0 40 6.4 SSW 11 26 6 14 1022.0 1021.1 0.0
09/01:00pm 17.0 13.0 4.7 44 5.9 W 15 22 8 12 1022.2 1021.3 0.0
09/12:30pm 16.0 11.6 4.6 46 5.4 SW 17 24 9 13 1022.3 1021.4 0.0
09/12:00pm 15.3 11.3 4.8 49 5.0 SW 15 24 8 13 1022.3 1021.4 0.0
09/11:30am 15.3 11.5 3.9 46 5.3 SSW 13 20 7 11 1022.5 1021.6 0.0
09/11:00am 14.5 10.1 4.5 51 4.7 SSW 17 22 9 12 1022.6 1021.7 0.0
09/10:30am 14.2 10.5 4.3 51 4.6 SW 13 22 7 12 1022.6 1021.7 0.0
09/10:00am 13.3 10.0 4.7 56 4.0 WSW 11 17 6 9 1022.7 1021.8 0.0
09/09:30am 12.8 9.5 4.3 56 3.9 SSW 11 20 6 11 1022.5 1021.6 0.0
09/09:00am 12.3 8.2 4.5 59 3.6 SW 15 20 8 11 1022.3 1021.4 0.2
09/08:30am 12.0 7.8 3.8 57 3.7 SW 15 20 8 11 1021.9 1021.0 0.2
09/08:00am 11.4 8.0 4.1 61 3.3 SW 11 15 6 8 1021.5 1020.7 0.2
09/07:30am 10.8 7.9 4.4 64 2.9 SW 9 13 5 7 1021.2 1020.4 0.2
09/07:00am 9.8 7.1 5.5 74 2.0 SW 9 11 5 6 1020.6 1019.8 0.2
09/06:30am 8.6 6.4 5.5 81 1.4 SW 6 7 3 4 1020.0 1019.1 0.2
09/06:00am 8.3 5.8 5.0 80 1.5 SW 7 11 4 6 1019.7 1018.8 0.2
09/05:30am 9.1 7.1 6.3 83 1.3 SSW 6 9 3 5 1019.3 1018.4 0.2
09/05:00am 9.0 7.1 6.9 87 1.0 SW 6 7 3 4 1019.0 1018.1 0.2
09/04:30am 8.1 6.1 6.2 88 0.9 WSW 6 7 3 4 1018.5 1017.6 0.2
09/04:00am 7.5 5.2 5.5 87 0.9 S 7 11 4 6 1018.1 1017.2 0.2
09/03:30am 7.3 5.1 6.4 94 0.4 SSW 7 9 4 5 1018.1 1017.2 0.2
09/03:00am 6.6 4.3 5.7 94 0.4 SW 7 9 4 5 1017.6 1016.8 0.2
09/02:30am 7.5 5.3 6.2 91 0.6 SSW 7 7 4 4 1017.5 1016.7 0.2
09/02:00am 8.7 6.3 7.0 89 0.8 WSW 9 13 5 7 1017.4 1016.6 0.2
09/01:30am 9.4 6.6 6.9 84 1.2 WSW 11 15 6 8 1017.5 1016.7 0.2
09/01:00am 8.8 6.8 7.1 89 0.8 WSW 7 11 4 6 1017.2 1016.3 0.2
09/12:30am 9.5 7.5 7.2 85 1.1 SSW 7 9 4 5 1017.1 1016.2 0.2
09/12:00am 10.4 8.1 7.3 81 1.5 S 9 11 5 6 1017.2 1016.3 0.2
 
Date/Time
CDT
Temp
°C
App
Temp
°C
Dew
Point
°C
Rel
Hum
%
Delta-T
°C
Wind Press
QNH
hPa
Press
MSL
hPa
Rain since
9am
mm
Dir  Spd
km/h
Gust
km/h
Spd
kts
Gust
kts
08/11:30pm 11.6 8.5 7.3 75 2.1 SW 13 20 7 11 1017.1 1016.2 0.2
08/11:00pm 12.1 8.2 7.0 71 2.5 SW 17 24 9 13 1017.0 1016.1 0.2
08/10:30pm 12.0 8.1 7.1 72 2.4 WSW 17 26 9 14 1016.8 1015.9 0.2
08/10:00pm 12.6 8.3 6.8 68 2.8 WSW 19 32 10 17 1016.4 1015.5 0.2
08/09:30pm 12.9 8.7 7.4 69 2.7 SW 19 30 10 16 1015.9 1015.0 0.2
08/09:00pm 12.8 9.4 9.1 78 1.9 SW 17 22 9 12 1015.4 1014.5 0.2
08/08:30pm 12.1 9.7 10.0 87 1.1 SW 13 20 7 11 1015.1 1014.2 0.2
08/08:00pm 12.6 6.5 8.2 74 2.2 SSW 30 39 16 21 1014.8 1013.9 0.0
08/07:33pm 14.5 7.7 6.8 60 3.8 WSW 32 50 17 27 1013.8 1012.9 0.0
08/07:30pm 14.4 7.7 7.2 62 3.6 WSW 32 46 17 25 1013.8 1012.9 0.0
08/07:00pm 15.1 8.5 6.1 55 4.4 WSW 30 48 16 26 1013.2 1012.3 0.0
08/06:37pm 16.0 8.9 5.5 49 5.1 WSW 32 52 17 28 1012.7 1011.8 0.0
08/06:30pm 15.8 8.6 5.8 51 4.9 WSW 33 48 18 26 1012.6 1011.7 0.0
08/06:01pm 17.1 9.6 4.4 43 6.1 WSW 33 52 18 28 1012.0 1011.1 0.0
08/06:00pm 16.8 8.9 4.2 43 6.0 WSW 35 52 19 28 1012.0 1011.1 0.0
08/05:30pm 17.4 9.0 1.8 35 7.1 WSW 35 56 19 30 1011.6 1010.7 0.0
08/05:03pm 17.7 8.7 0.0 30 7.8 WSW 37 56 20 30 1011.1 1010.1 0.0
08/05:00pm 17.7 9.0 1.7 34 7.3 WSW 37 50 20 27 1011.1 1010.1 0.0
08/04:30pm 17.1 7.2 2.9 38 6.6 WSW 44 67 24 36 1010.8 1009.8 0.0
08/04:07pm 17.3 9.5 4.9 44 6.0 WSW 35 59 19 32 1010.7 1009.7 0.0
08/04:00pm 17.5 10.2 5.5 45 5.9 WSW 33 50 18 27 1010.7 1009.7 0.0
08/03:30pm 17.4 8.2 3.7 40 6.5 WSW 41 61 22 33 1010.2 1009.3 0.0
08/03:00pm 17.7 8.0 3.0 37 6.9 WSW 43 61 23 33 1010.0 1009.1 0.0
08/02:30pm 18.1 8.5 3.3 37 7.0 WSW 43 69 23 37 1010.0 1009.1 0.0
08/02:00pm 17.1 7.6 4.1 42 6.2 WSW 43 63 23 34 1010.3 1009.4 0.0
08/01:30pm 17.7 9.0 6.1 46 5.8 WSW 41 61 22 33 1010.2 1009.3 0.0
08/01:00pm 16.2 8.7 6.3 52 4.9 WSW 35 56 19 30 1009.9 1009.0 0.0
08/12:36pm 17.2 10.2 6.1 48 5.5 WSW 32 61 17 33 1009.6 1008.7 0.0
08/12:30pm 16.8 9.3 7.8 55 4.6 WSW 37 54 20 29 1009.6 1008.7 0.0
08/12:00pm 15.6 7.3 6.3 54 4.6 WSW 39 57 21 31 1009.3 1008.4 0.0
08/11:30am 17.0 8.4 4.8 44 5.9 WSW 39 57 21 31 1008.9 1008.0 0.0
08/11:00am 16.6 6.2 4.2 43 5.9 WSW 48 69 26 37 1008.6 1007.7 0.0
08/10:30am 16.8 8.9 6.1 49 5.3 WSW 37 59 20 32 1008.2 1007.3 0.0
08/10:00am 15.7 6.8 6.7 55 4.5 WSW 43 72 23 39 1007.8 1006.8 0.0
08/09:30am 14.2 5.6 6.5 60 3.8 WSW 41 65 22 35 1007.5 1006.5 0.0
08/09:00am 14.6 6.9 7.0 60 3.8 WSW 37 56 20 30 1007.2 1006.2 8.0
08/08:30am 14.3 6.9 6.8 60 3.7 W 35 59 19 32 1007.2 1006.2 8.0
08/08:00am 13.8 7.6 7.8 67 3.0 W 30 50 16 27 1006.9 1005.9 8.0
08/07:53am 13.7 7.5 7.7 67 3.0 W 30 50 16 27 1006.9 1005.9 8.0
08/07:30am 13.2 7.4 7.8 70 2.7 W 28 44 15 24 1006.4 1005.5 8.0
08/07:06am 12.3 6.6 8.3 76 2.0 W 28 46 15 25 1005.9 1005.0 8.0
08/07:00am 12.3 6.3 8.5 77 1.9 W 30 44 16 24 1005.9 1005.0 8.0
08/06:30am 12.2 7.0 8.9 80 1.7 W 26 39 14 21 1005.4 1004.5 8.0
08/06:00am 12.5 6.4 9.6 82 1.5 W 32 50 17 27 1004.9 1004.0 8.0
08/05:30am 13.2 5.8 10.0 81 1.7 WSW 39 59 21 32 1004.6 1003.6 8.0
08/05:00am 14.3 8.3 13.4 94 0.5 WSW 37 61 20 33 1003.9 1002.9 8.0
08/04:30am 15.2 11.3 14.5 96 0.4 W 28 50 15 27 1003.6 1002.6 7.8
08/04:00am 15.4 10.3 14.7 96 0.4 W 35 54 19 29 1003.4 1002.4 7.6
08/03:40am 16.1 11.8 15.3 95 0.5 W 32 50 17 27 1003.2 1002.2 7.0
08/03:30am 16.6 12.2 15.6 94 0.6 W 33 50 18 27 1002.9 1001.9 6.8
08/03:00am 18.1 14.5 17.1 94 0.6 WNW 32 44 17 24 1003.1 1002.1 6.6
08/02:40am 18.1 15.4 17.5 96 0.4 WNW 28 46 15 25 1002.6 1001.7 6.4
08/02:30am 18.4 15.8 17.8 96 0.4 WNW 28 44 15 24 1002.9 1001.9 5.6
08/02:00am 18.7 17.6 17.7 94 0.6 NW 20 35 11 19 1003.2 1002.2 3.6
08/01:30am 19.4 18.1 17.3 88 1.3 WNW 20 28 11 15 1003.6 1002.6 1.8
08/01:00am 20.3 17.6 15.7 75 2.8 NNW 24 37 13 20 1003.0 1002.0 1.2
08/12:30am 24.2 21.1 12.1 46 7.0 N 20 32 11 17 1001.2 1000.2 0.0
08/12:00am 26.5 22.8 9.3 33 9.6 N 19 35 10 19 1000.7 999.7 0.0
 
Date/Time
CDT
Temp
°C
App
Temp
°C
Dew
Point
°C
Rel
Hum
%
Delta-T
°C
Wind Press
QNH
hPa
Press
MSL
hPa
Rain since
9am
mm
Dir  Spd
km/h
Gust
km/h
Spd
kts
Gust
kts
07/11:30pm 26.8 23.5 9.5 33 9.7 NNE 17 26 9 14 1000.8 999.8 0.0
07/11:00pm 28.2 23.9 9.2 30 10.6 N 22 43 12 23 1001.1 1000.1 0.0
07/10:30pm 27.3 24.4 9.8 33 9.9 N 15 28 8 15 1002.1 1001.2 0.0
07/10:00pm 26.6 23.0 9.7 34 9.5 N 19 26 10 14 1002.4 1001.5 0.0
07/09:30pm 26.0 24.1 10.5 37 8.8 N 11 15 6 8 1003.3 1002.3 0.0
07/09:00pm 26.2 24.5 11.3 39 8.6 NNE 11 15 6 8 1003.5 1002.5 0.0
07/08:30pm 27.6 25.8 11.0 35 9.6 N 11 20 6 11 1004.2 1003.2 0.0
07/08:00pm 27.8 26.2 11.5 36 9.5 N 11 19 6 10 1004.4 1003.4 0.0
07/07:30pm 28.7 26.5 10.9 33 10.3 N 13 19 7 10 1004.7 1003.7 0.0
07/07:00pm 29.2 27.3 10.5 31 10.7 NNW 11 22 6 12 1004.9 1004.0 0.0
07/06:30pm 29.1 27.0 11.0 32 10.5 NNW 13 20 7 11 1005.2 1004.3 0.0
07/06:00pm 28.5 28.0 12.5 37 9.5 NE 7 20 4 11 1005.7 1004.8 0.0
07/05:30pm 27.6 27.5 13.2 41 8.6 WSW 6 11 3 6 1006.7 1005.7 0.0
07/05:00pm 26.7 25.2 13.1 43 8.1 SW 13 19 7 10 1007.1 1006.1 0.0
07/04:30pm 25.8 24.0 13.3 46 7.4 SW 15 22 8 12 1007.9 1006.9 0.0
07/04:00pm 27.9 24.6 9.4 31 10.4 WNW 17 26 9 14 1008.3 1007.4 0.0
07/03:30pm 28.6 23.9 7.9 27 11.4 NW 22 35 12 19 1008.6 1007.7 0.0
07/03:00pm 29.1 26.0 9.0 28 11.3 N 15 26 8 14 1009.0 1008.1 0.0
07/02:30pm 28.5 24.9 8.5 28 11.1 NNE 17 28 9 15 1009.4 1008.5 0.0
07/02:00pm 28.0 24.4 8.5 29 10.8 N 17 24 9 13 1010.1 1009.2 0.0
07/01:30pm 27.7 25.1 9.3 31 10.3 N 13 22 7 12 1010.9 1009.9 0.0
07/01:00pm 29.6 26.9 9.0 27 11.6 N 13 22 7 12 1011.3 1010.4 0.0
07/12:30pm 27.4 24.8 9.3 32 10.1 N 13 24 7 13 1011.9 1011.0 0.0
07/12:00pm 26.4 23.5 8.3 31 9.9 NNE 13 20 7 11 1012.6 1011.7 0.0
07/11:30am 26.0 23.2 8.4 32 9.6 N 13 26 7 14 1013.3 1012.4 0.0
07/11:00am 23.6 19.8 7.6 35 8.5 NE 17 24 9 13 1013.9 1013.0 0.0
07/10:30am 22.7 19.3 7.5 37 8.0 NE 15 22 8 12 1014.5 1013.6 0.0
07/10:00am 20.4 16.5 7.0 41 6.9 NE 17 24 9 13 1014.9 1014.0 0.0
07/09:30am 18.6 14.3 7.0 46 5.9 NE 19 28 10 15 1015.4 1014.5 0.0
07/09:00am 16.9 12.5 7.2 52 4.9 ENE 20 30 11 16 1015.6 1014.7 0.0
07/08:30am 15.4 11.1 7.2 58 4.1 ENE 19 26 10 14 1015.6 1014.7 0.0
07/08:00am 14.7 10.9 7.5 62 3.6 ENE 17 22 9 12 1015.6 1014.7 0.0
07/07:30am 13.4 10.4 7.6 68 2.9 ENE 13 22 7 12 1015.6 1014.7 0.0
07/07:00am 11.8 8.8 7.5 75 2.1 ENE 13 19 7 10 1015.3 1014.4 0.0
07/06:30am 9.8 7.6 8.0 88 0.9 NE 9 13 5 7 1015.1 1014.2 0.0
07/06:00am 9.1 7.2 7.4 89 0.8 NE 7 9 4 5 1014.8 1013.9 0.0
07/05:30am 10.4 8.5 7.5 82 1.4 ENE 7 13 4 7 1014.6 1013.7 0.0
07/05:00am 10.9 8.3 7.6 80 1.6 ENE 11 17 6 9 1014.3 1013.3 0.0
07/04:30am 11.0 8.4 7.7 80 1.6 E 11 20 6 11 1014.0 1013.1 0.0
07/04:00am 11.1 9.0 8.1 82 1.5 E 9 15 5 8 1014.1 1013.2 0.0
07/03:30am 11.2 9.0 8.0 81 1.6 E 9 15 5 8 1014.1 1013.2 0.0
07/03:00am 10.4 8.2 7.7 83 1.3 NE 9 17 5 9 1014.6 1013.7 0.0
07/02:30am 9.9 7.6 7.6 85 1.1 ENE 9 11 5 6 1014.5 1013.6 0.0
07/02:00am 10.2 8.3 7.5 83 1.3 NNE 7 11 4 6 1015.0 1014.1 0.0
07/01:30am 10.3 8.4 7.6 83 1.3 NE 7 9 4 5 1015.4 1014.5 0.0
07/01:00am 10.6 8.7 7.5 81 1.5 ENE 7 9 4 5 1015.7 1014.8 0.0
07/12:30am 11.0 8.7 7.3 78 1.8 NE 9 11 5 6 1016.1 1015.2 0.0
07/12:00am 10.8 8.9 6.8 76 1.9 ENE 6 9 3 5 1016.2 1015.3 0.0
 
Date/Time
CDT
Temp
°C
App
Temp
°C
Dew
Point
°C
Rel
Hum
%
Delta-T
°C
Wind Press
QNH
hPa
Press
MSL
hPa
Rain since
9am
mm
Dir  Spd
km/h
Gust
km/h
Spd
kts
Gust
kts
06/11:30pm 11.1 9.1 7.0 76 2.0 NE 7 9 4 5 1016.4 1015.5 0.0
06/11:00pm 10.6 8.8 7.1 79 1.7 ENE 6 9 3 5 1016.5 1015.6 0.0
06/10:30pm 11.3 10.5 6.7 73 2.2 CALM 0 0 0 0 1016.8 1015.9 0.0
06/10:00pm 11.7 10.9 6.5 70 2.5 CALM 0 7 0 4 1016.8 1015.9 0.0
06/09:30pm 13.0 10.3 5.6 61 3.5 ESE 9 11 5 6 1016.6 1015.7 0.0
06/09:00pm 14.8 12.0 5.2 52 4.6 SW 9 13 5 7 1016.5 1015.6 0.0
06/08:30pm 17.0 14.1 4.5 43 6.0 WSW 9 13 5 7 1016.0 1015.1 0.0
06/08:00pm 18.8 15.8 4.0 37 7.1 WSW 9 15 5 8 1016.2 1015.3 0.0
06/07:30pm 19.9 15.7 3.7 34 7.8 WSW 15 17 8 9 1016.1 1015.2 0.0
06/07:00pm 20.5 16.1 2.8 31 8.4 WSW 15 20 8 11 1015.7 1014.8 0.0
06/06:30pm 21.0 16.0 3.4 31 8.5 WSW 19 24 10 13 1015.6 1014.7 0.0
06/06:00pm 22.1 17.6 4.3 31 8.8 WSW 17 24 9 13 1015.2 1014.3 0.0
06/05:30pm 21.9 17.2 3.4 29 9.0 W 17 24 9 13 1014.9 1014.0 0.0
06/05:00pm 22.2 17.3 2.3 27 9.5 WSW 17 24 9 13 1015.2 1014.3 0.0
06/04:30pm 22.0 17.1 1.9 26 9.5 W 17 26 9 14 1015.5 1014.6 0.0

Latest Capital City Observations: Canberra | Sydney | Melbourne | Brisbane | Adelaide | Perth | Hobart | Darwin

Other Formats:

Comma delimited format used in spreadsheet applications
http://www.bom.gov.au/fwo/IDS60901/IDS60901.94681.axf

JavaScript Object Notation format (JSON) in row-major order
http://www.bom.gov.au/fwo/IDS60901/IDS60901.94681.json